Time;durP1;ratioP1;P1;durP2;ratioP2;P2;SDS_P1;SDS_P2;PMS_P1;PMS_P2;Temp;Humidity;BMP_temperature;BMP_pressure;BME280_temperature;BME280_humidity;BME280_pressure;Samples;Min_cycle;Max_cycle;Signal;HPM_P1;HPM_P2
2021/11/26 00:00:10;;;;;;;3.47;2.63;;;;;;;3.95;84.38;98991.19;5114999;28;20038;-72
2021/11/26 00:02:36;;;;;;;4.67;2.80;;;;;;;3.91;84.37;98989.88;5133037;28;20292;-71
2021/11/26 00:05:03;;;;;;;3.00;2.80;;;;;;;3.93;84.08;98983.47;5133154;28;20304;-72
2021/11/26 00:07:30;;;;;;;2.97;2.67;;;;;;;3.97;84.30;98989.22;5132904;28;20039;-73
2021/11/26 00:09:55;;;;;;;3.37;2.90;;;;;;;3.97;83.43;98982.13;5132746;28;20275;-72
2021/11/26 00:12:22;;;;;;;3.83;3.43;;;;;;;3.88;83.31;98974.41;5133028;28;20281;-72
2021/11/26 00:17:26;;;;;;;3.10;2.60;;;;;;;3.91;84.04;98985.44;5133042;28;20043;-73
2021/11/26 00:19:52;;;;;;;6.00;3.00;;;;;;;3.82;83.33;98960.09;5132842;28;20364;-71
2021/11/26 00:22:18;;;;;;;3.57;2.97;;;;;;;3.86;83.35;98969.31;5132673;28;20031;-73
2021/11/26 00:24:43;;;;;;;2.87;2.67;;;;;;;3.67;83.13;98930.13;5132667;28;20466;-71
2021/11/26 00:27:09;;;;;;;3.17;2.77;;;;;;;3.80;83.04;98948.91;5132817;28;20065;-72
2021/11/26 00:29:35;;;;;;;5.33;2.93;;;;;;;3.91;82.88;98961.72;5133010;28;20050;-72
2021/11/26 00:32:01;;;;;;;2.67;2.43;;;;;;;3.92;82.29;98952.84;5132897;28;20125;-71
2021/11/26 00:34:26;;;;;;;2.67;2.47;;;;;;;3.86;82.92;98945.59;5132652;28;20031;-72
2021/11/26 00:36:52;;;;;;;3.00;2.40;;;;;;;3.86;81.72;98956.13;5132680;28;20030;-71
2021/11/26 00:39:18;;;;;;;3.20;2.87;;;;;;;3.87;82.09;98955.16;5132778;28;20035;-73
2021/11/26 00:41:45;;;;;;;3.47;2.30;;;;;;;3.83;81.80;98938.03;5114119;28;20058;-72
2021/11/26 00:44:10;;;;;;;3.37;2.50;;;;;;;3.67;82.11;98909.06;5132716;28;20329;-73
2021/11/26 00:46:36;;;;;;;2.37;2.17;;;;;;;3.88;81.61;98948.91;5132920;28;20735;-71
2021/11/26 00:49:02;;;;;;;4.57;2.13;;;;;;;3.81;81.37;98934.75;5132896;28;20034;-72
2021/11/26 00:51:30;;;;;;;3.20;2.53;;;;;;;3.77;81.95;98925.53;5114070;28;20111;-72
2021/11/26 00:53:58;;;;;;;2.73;2.13;;;;;;;3.71;82.04;98915.63;5133886;27;20300;-72
2021/11/26 00:56:23;;;;;;;2.63;2.43;;;;;;;3.81;82.26;98926.84;5136475;27;20748;-71
2021/11/26 00:58:49;;;;;;;2.60;2.37;;;;;;;3.79;81.88;98923.56;5136765;27;20252;-73
2021/11/26 01:01:15;;;;;;;2.80;2.30;;;;;;;3.76;82.33;98918.63;5118022;27;20444;-72
2021/11/26 01:03:41;;;;;;;2.17;1.97;;;;;;;3.83;82.33;98931.94;5117580;27;20551;-72
2021/11/26 01:06:06;;;;;;;4.80;2.60;;;;;;;3.78;81.87;98923.72;5136061;27;20058;-72
2021/11/26 01:08:32;;;;;;;4.43;2.13;;;;;;;3.76;81.61;98923.03;5136033;27;20513;-72
2021/11/26 01:10:58;;;;;;;2.57;2.37;;;;;;;3.75;81.28;98914.31;5136219;27;20496;-73
2021/11/26 01:13:24;;;;;;;1.73;1.63;;;;;;;3.78;81.02;98910.56;5136452;27;20092;-73
2021/11/26 01:15:49;;;;;;;2.57;2.37;;;;;;;3.60;80.96;98887.00;5138743;27;20035;-72
2021/11/26 01:18:15;;;;;;;2.00;1.87;;;;;;;3.62;81.17;98885.03;5148945;27;20035;-75
2021/11/26 01:20:42;;;;;;;1.87;1.77;;;;;;;3.50;81.45;98863.50;5150511;27;20056;-73
2021/11/26 01:23:09;;;;;;;2.50;1.97;;;;;;;3.73;80.99;98897.84;5130594;27;20273;-72
2021/11/26 01:25:35;;;;;;;1.87;1.77;;;;;;;3.78;80.85;98895.59;5147872;27;20264;-72
2021/11/26 01:28:02;;;;;;;2.30;2.10;;;;;;;3.76;80.79;98881.75;5120289;27;20666;-71
2021/11/26 01:30:35;;;;;;;2.77;2.40;;;;;;;3.71;81.23;98866.44;5137130;27;20351;-72
2021/11/26 01:33:05;;;;;;;1.83;1.60;;;;;;;3.69;80.70;98859.69;5137074;27;20303;-71
2021/11/26 01:35:31;;;;;;;2.20;2.00;;;;;;;3.52;80.92;98831.75;5136485;27;20296;-73
2021/11/26 01:37:57;;;;;;;2.30;1.80;;;;;;;3.67;80.47;98856.41;5137004;27;20279;-72
2021/11/26 01:40:23;;;;;;;2.23;1.73;;;;;;;3.57;81.00;98850.50;5136442;27;20256;-73
2021/11/26 01:42:55;;;;;;;3.07;1.50;;;;;;;3.71;80.82;98865.63;5138994;27;20395;-70
2021/11/26 01:45:22;;;;;;;2.30;2.10;;;;;;;3.76;80.88;98859.84;5135692;27;20042;-72
2021/11/26 01:47:47;;;;;;;2.67;2.33;;;;;;;3.71;80.89;98849.81;5135560;27;20747;-73
2021/11/26 01:50:17;;;;;;;1.90;1.80;;;;;;;3.60;81.33;98850.16;5135362;27;20349;-72
2021/11/26 01:52:45;;;;;;;2.33;2.07;;;;;;;3.54;81.63;98840.28;5135584;27;20559;-74
2021/11/26 01:55:13;;;;;;;2.10;1.90;;;;;;;3.54;81.43;98850.81;5135322;27;20292;-73
2021/11/26 01:57:38;;;;;;;2.67;2.30;;;;;;;3.47;82.46;98849.81;5135595;27;20027;-72
2021/11/26 02:00:10;;;;;;;2.47;2.20;;;;;;;3.21;81.82;98805.25;5135453;27;20261;-72
2021/11/26 02:02:36;;;;;;;1.77;1.63;;;;;;;3.47;81.93;98839.28;5135921;27;20054;-72
2021/11/26 02:05:02;;;;;;;2.43;2.23;;;;;;;3.41;82.62;98835.50;5116971;28;20280;-71
2021/11/26 02:07:28;;;;;;;2.43;2.23;;;;;;;3.54;82.72;98835.03;5117533;27;20555;-72
2021/11/26 02:09:54;;;;;;;3.10;2.20;;;;;;;3.48;82.55;98836.50;5135481;27;20300;-72
2021/11/26 02:12:20;;;;;;;3.10;2.00;;;;;;;3.46;82.24;98838.47;5135508;27;20031;-71
2021/11/26 02:14:46;;;;;;;2.77;2.43;;;;;;;3.34;82.88;98819.56;5135718;27;20054;-72
2021/11/26 02:17:13;;;;;;;2.17;1.93;;;;;;;3.38;82.26;98826.13;5137021;27;20066;-73
2021/11/26 02:19:39;;;;;;;2.67;2.00;;;;;;;3.33;82.38;98817.91;5136919;27;20260;-71
2021/11/26 02:22:05;;;;;;;2.27;1.90;;;;;;;3.30;82.37;98823.50;5137973;27;20260;-74
2021/11/26 02:24:31;;;;;;;2.37;2.10;;;;;;;3.18;82.58;98814.28;5138074;27;20364;-72
2021/11/26 02:26:57;;;;;;;3.27;2.10;;;;;;;3.19;82.87;98823.00;5140317;27;20271;-71
2021/11/26 02:29:24;;;;;;;2.50;2.07;;;;;;;3.17;83.49;98832.84;5148416;27;20046;-71
2021/11/26 02:31:50;;;;;;;2.40;1.80;;;;;;;3.21;82.52;98832.38;5157467;27;20054;-71
2021/11/26 02:34:16;;;;;;;3.83;2.43;;;;;;;3.11;83.20;98816.72;5154410;27;20280;-72
2021/11/26 02:36:42;;;;;;;2.10;1.90;;;;;;;3.19;83.03;98826.47;5155481;27;20083;-71
2021/11/26 02:39:09;;;;;;;2.53;2.30;;;;;;;3.18;83.08;98819.56;5157920;27;20233;-71
2021/11/26 02:41:41;;;;;;;3.70;3.00;;;;;;;3.15;83.70;98827.75;5141025;27;20310;-72
2021/11/26 02:44:08;;;;;;;2.60;2.40;;;;;;;3.01;83.86;98802.09;5158242;27;20256;-71
2021/11/26 02:46:34;;;;;;;3.10;2.57;;;;;;;3.13;83.88;98821.81;5155670;27;20284;-72
2021/11/26 02:49:00;;;;;;;3.80;3.00;;;;;;;3.13;83.30;98815.75;5153328;27;20775;-71
2021/11/26 02:51:27;;;;;;;4.30;2.93;;;;;;;3.04;83.28;98807.03;5153801;27;20291;-71
2021/11/26 02:53:53;;;;;;;4.77;3.53;;;;;;;2.96;83.00;98796.50;5156181;27;20043;-72
2021/11/26 02:56:19;;;;;;;5.23;2.70;;;;;;;3.08;82.62;98824.13;5155588;27;20303;-72
2021/11/26 02:58:45;;;;;;;3.00;2.70;;;;;;;3.05;82.88;98821.81;5155922;27;20018;-72
2021/11/26 03:01:11;;;;;;;2.83;2.63;;;;;;;3.01;83.18;98817.88;5157569;27;20090;-71
2021/11/26 03:03:36;;;;;;;3.63;3.17;;;;;;;3.03;83.80;98816.72;5157807;27;20050;-72
2021/11/26 03:06:05;;;;;;;3.77;3.33;;;;;;;2.99;83.25;98811.97;5119172;27;20284;-72
2021/11/26 03:08:32;;;;;;;4.22;3.83;;;;;;;2.97;83.29;98817.38;5133916;27;20039;-73
2021/11/26 03:10:59;;;;;;;3.67;3.07;;;;;;;2.92;84.09;98816.22;5133852;27;20058;-71
2021/11/26 03:13:25;;;;;;;4.50;3.20;;;;;;;2.80;83.83;98794.66;5134441;27;20288;-72
2021/11/26 03:15:52;;;;;;;5.33;4.20;;;;;;;2.83;84.78;98814.53;5133999;27;20273;-73
2021/11/26 03:18:19;;;;;;;5.13;4.00;;;;;;;2.80;84.26;98811.25;5133111;27;20335;-71
2021/11/26 03:20:47;;;;;;;5.10;4.10;;;;;;;2.71;84.09;98799.06;5134501;27;20268;-71
2021/11/26 03:23:13;;;;;;;4.57;3.73;;;;;;;2.78;84.74;98807.13;5154415;27;20249;-73
2021/11/26 03:25:41;;;;;;;7.20;4.70;;;;;;;2.76;84.59;98804.69;5147059;27;20257;-72
2021/11/26 03:28:11;;;;;;;6.33;5.60;;;;;;;2.55;83.96;98759.59;5133474;27;20257;-71
2021/11/26 03:30:37;;;;;;;7.00;5.03;;;;;;;2.69;85.24;98790.53;5133497;27;20273;-70
2021/11/26 03:33:03;;;;;;;6.70;4.90;;;;;;;2.72;84.76;98787.59;5133285;27;20257;-72
2021/11/26 03:35:29;;;;;;;6.17;4.93;;;;;;;2.44;84.51;98754.66;5133414;27;20391;-72
2021/11/26 03:37:55;;;;;;;5.67;4.83;;;;;;;2.61;84.04;98790.53;5114913;27;20272;-71
2021/11/26 03:40:23;;;;;;;5.80;4.90;;;;;;;2.22;84.23;98724.53;5133298;27;20678;-71
2021/11/26 03:42:50;;;;;;;6.00;5.27;;;;;;;2.54;84.40;98789.50;5115109;27;20039;-71
2021/11/26 03:45:18;;;;;;;8.73;6.23;;;;;;;2.58;84.61;98801.31;5133451;27;20279;-71
2021/11/26 03:47:44;;;;;;;6.90;5.50;;;;;;;2.57;84.58;98801.47;5133169;27;20636;-71
2021/11/26 03:50:11;;;;;;;10.70;5.20;;;;;;;2.56;84.78;98797.22;5133409;27;20043;-73
2021/11/26 03:52:38;;;;;;;8.27;5.90;;;;;;;2.55;84.95;98796.38;5133155;27;20770;-72
2021/11/26 03:55:07;;;;;;;8.87;6.47;;;;;;;2.40;84.73;98771.72;5132874;27;20293;-73
2021/11/26 03:57:33;;;;;;;9.30;6.93;;;;;;;2.53;84.11;98782.59;5133331;28;20272;-71
2021/11/26 03:59:58;;;;;;;7.57;6.03;;;;;;;2.44;83.96;98767.78;5134080;28;20031;-71
2021/11/26 04:02:24;;;;;;;7.33;5.67;;;;;;;2.41;83.41;98786.50;5133228;28;20027;-70
2021/11/26 04:04:49;;;;;;;8.80;6.30;;;;;;;2.33;84.05;98770.72;5133161;28;20031;-71
2021/11/26 04:07:15;;;;;;;7.53;6.57;;;;;;;2.40;84.45;98782.22;5132967;28;20061;-70
2021/11/26 04:09:41;;;;;;;8.10;6.47;;;;;;;2.36;84.59;98780.91;5132593;28;20035;-71
2021/11/26 04:12:08;;;;;;;7.03;5.67;;;;;;;2.26;84.29;98772.31;5132954;28;20043;-71
2021/11/26 04:14:33;;;;;;;9.77;7.20;;;;;;;2.31;84.61;98777.91;5132611;28;20509;-73
2021/11/26 04:17:01;;;;;;;8.77;6.67;;;;;;;2.22;84.03;98765.72;5132952;28;20280;-73
2021/11/26 04:19:26;;;;;;;8.47;7.43;;;;;;;2.26;84.13;98780.19;5132828;28;20257;-71
2021/11/26 04:21:52;;;;;;;8.80;6.90;;;;;;;2.18;84.40;98773.94;5114427;28;20647;-72
2021/11/26 04:24:17;;;;;;;9.57;6.73;;;;;;;2.16;84.64;98769.81;5114731;28;20493;-71
2021/11/26 04:26:43;;;;;;;8.13;6.87;;;;;;;2.14;84.79;98777.84;5132805;28;20516;-72
2021/11/26 04:29:09;;;;;;;9.80;7.70;;;;;;;2.09;84.21;98764.38;5134709;27;20035;-74
2021/11/26 04:31:35;;;;;;;8.90;6.97;;;;;;;2.06;84.42;98774.38;5137079;27;20031;-72
2021/11/26 04:34:00;;;;;;;8.87;7.03;;;;;;;1.88;85.28;98736.88;5136670;27;20042;-71
2021/11/26 04:36:26;;;;;;;8.73;6.90;;;;;;;2.02;84.50;98768.59;5136857;27;20053;-71
2021/11/26 04:38:51;;;;;;;11.03;7.80;;;;;;;2.06;84.69;98761.25;5118488;27;20092;-71
2021/11/26 04:41:17;;;;;;;10.23;8.07;;;;;;;2.01;85.50;98777.44;5137143;27;20042;-71
2021/11/26 04:43:42;;;;;;;10.73;7.97;;;;;;;1.98;85.50;98762.00;5136734;27;20114;-71
2021/11/26 04:46:08;;;;;;;10.73;7.60;;;;;;;1.96;85.06;98753.47;5136606;27;20039;-70
2021/11/26 04:48:33;;;;;;;8.43;6.80;;;;;;;1.76;84.93;98733.69;5136740;27;20557;-70
2021/11/26 04:51:01;;;;;;;10.57;8.17;;;;;;;1.98;85.13;98769.88;5139536;27;20146;-71
2021/11/26 04:53:28;;;;;;;9.77;7.70;;;;;;;1.91;85.07;98768.88;5144402;27;20095;-70
2021/11/26 04:55:59;;;;;;;11.10;8.27;;;;;;;1.92;85.70;98759.19;5143621;27;20295;-70
2021/11/26 04:58:38;;;;;;;9.13;7.60;;;;;;;1.95;85.00;98766.75;5141569;27;20268;-70
2021/11/26 05:01:06;;;;;;;11.80;8.53;;;;;;;1.90;85.78;98761.97;5125933;27;20311;-71
2021/11/26 05:04:13;;;;;;;9.53;7.20;;;;;;;1.88;85.11;98761.31;5125373;27;20276;-71
2021/11/26 05:06:45;;;;;;;10.67;7.87;;;;;;;1.88;85.63;98771.81;5084698;27;20645;-70
2021/11/26 05:12:31;;;;;;;;;;;;;;;;;;;;;
2021/11/26 05:15:04;;;;;;;10.83;7.40;;;;;;;1.82;84.93;98769.81;5100816;28;20297;-70
2021/11/26 05:18:03;;;;;;;11.15;8.40;;;;;;;1.81;84.80;98781.28;5105417;28;20282;-73
2021/11/26 05:21:04;;;;;;;11.30;8.27;;;;;;;1.78;85.68;98781.59;5122984;28;20043;-73
2021/11/26 05:23:43;;;;;;;12.80;9.03;;;;;;;1.75;85.34;98771.41;5098154;28;20273;-72
2021/11/26 05:26:41;;;;;;;10.73;8.17;;;;;;;1.76;85.22;98773.06;5123193;28;20283;-72
2021/11/26 05:29:56;;;;;;;11.07;8.27;;;;;;;1.80;85.08;98777.03;5113292;28;20281;-72
2021/11/26 05:32:48;;;;;;;11.75;9.05;;;;;;;1.80;85.68;98769.16;5111046;28;20258;-73
2021/11/26 05:35:15;;;;;;;13.63;9.97;;;;;;;1.75;85.85;98781.91;5122347;28;20035;-71
2021/11/26 05:37:41;;;;;;;13.20;8.50;;;;;;;1.65;85.30;98760.19;5120373;28;20318;-73
2021/11/26 05:40:09;;;;;;;12.47;9.63;;;;;;;1.71;85.26;98785.81;5119062;28;20284;-72
2021/11/26 05:42:42;;;;;;;15.50;9.10;;;;;;;1.62;85.91;98769.19;5085691;28;20790;-72
2021/11/26 05:45:17;;;;;;;17.97;9.20;;;;;;;1.75;85.83;98780.13;5117354;28;20079;-71
2021/11/26 05:47:43;;;;;;;10.37;8.10;;;;;;;1.77;85.47;98779.97;5116581;28;20739;-69
2021/11/26 05:50:13;;;;;;;12.77;9.37;;;;;;;1.74;85.28;98780.28;5117552;28;20262;-71
2021/11/26 05:52:40;;;;;;;14.03;9.50;;;;;;;1.77;85.74;98777.34;5119859;28;20047;-70
2021/11/26 05:55:14;;;;;;;12.27;9.90;;;;;;;1.82;85.30;98782.94;5119421;28;20339;-72
2021/11/26 05:57:49;;;;;;;14.27;9.60;;;;;;;1.81;84.84;98789.16;5121526;28;20265;-72
2021/11/26 06:00:41;;;;;;;12.30;9.40;;;;;;;1.80;84.98;98796.22;5123570;28;20348;-73
2021/11/26 06:03:10;;;;;;;11.33;8.93;;;;;;;1.76;84.84;98794.06;5091002;28;20888;-70
2021/11/26 06:05:42;;;;;;;;;;;;;;;1.72;84.85;98792.69;5105071;28;20325;-74
2021/11/26 06:08:17;;;;;;;12.10;8.63;;;;;;;1.71;85.02;98791.06;5121574;28;19916;-75
2021/11/26 06:10:44;;;;;;;11.73;8.60;;;;;;;1.30;85.29;98729.63;5121134;28;20752;-74
2021/11/26 06:13:09;;;;;;;11.10;8.70;;;;;;;1.60;84.75;98770.31;5114631;28;20360;-74
2021/11/26 06:15:39;;;;;;;11.90;9.23;;;;;;;1.62;85.05;98794.59;5115702;28;20282;-74
2021/11/26 06:18:07;;;;;;;12.87;9.90;;;;;;;1.58;85.42;98795.91;5103761;28;20054;-73
2021/11/26 06:20:33;;;;;;;11.93;9.00;;;;;;;1.60;84.97;98789.50;5120661;28;20813;-73
2021/11/26 06:23:02;;;;;;;15.37;10.47;;;;;;;1.62;85.49;98797.22;5105930;28;20613;-73
2021/11/26 06:25:40;;;;;;;12.87;9.77;;;;;;;1.55;85.05;98794.41;5103622;28;20266;-76
2021/11/26 06:28:06;;;;;;;14.43;9.43;;;;;;;1.46;85.83;98793.53;5102807;28;20266;-75
2021/11/26 06:30:47;;;;;;;14.17;10.23;;;;;;;1.53;85.11;98788.50;5102731;28;20337;-74
2021/11/26 06:33:16;;;;;;;16.33;10.20;;;;;;;1.56;85.28;98796.06;5118805;28;20490;-71
2021/11/26 06:35:44;;;;;;;11.70;9.20;;;;;;;1.50;84.84;98786.19;5118703;28;20289;-72
2021/11/26 06:38:10;;;;;;;13.60;10.95;;;;;;;1.23;85.03;98755.66;5116628;28;20046;-71
2021/11/26 06:44:16;;;;;;;13.70;9.73;;;;;;;1.40;86.07;98815.09;5117546;28;20193;-74
2021/11/26 06:46:42;;;;;;;14.77;10.57;;;;;;;1.17;86.77;98782.47;5115407;28;20305;-72
2021/11/26 06:49:08;;;;;;;14.03;10.40;;;;;;;1.35;86.36;98817.34;5097530;28;20284;-73
2021/11/26 06:51:34;;;;;;;16.00;10.90;;;;;;;1.24;86.62;98794.00;5097594;28;20054;-72
2021/11/26 06:54:00;;;;;;;16.60;11.77;;;;;;;1.25;86.05;98795.66;5115314;28;20043;-71
2021/11/26 06:56:26;;;;;;;18.13;11.50;;;;;;;1.35;86.20;98819.16;5115888;28;20266;-68
2021/11/26 06:58:54;;;;;;;17.20;12.07;;;;;;;1.26;86.80;98801.72;5115771;28;20269;-76
2021/11/26 07:01:21;;;;;;;13.50;10.90;;;;;;;1.38;86.58;98817.06;5098470;28;20032;-68
2021/11/26 07:03:46;;;;;;;13.23;10.13;;;;;;;1.36;86.47;98811.13;5115548;28;20040;-68
2021/11/26 07:06:12;;;;;;;15.47;11.13;;;;;;;1.42;86.27;98826.25;5117404;28;20306;-75
2021/11/26 07:08:41;;;;;;;14.93;11.60;;;;;;;1.42;85.42;98834.13;5116160;28;20043;-74
2021/11/26 07:11:07;;;;;;;16.13;10.90;;;;;;;1.44;85.76;98831.34;5116202;28;20031;-72
2021/11/26 07:13:32;;;;;;;14.23;10.77;;;;;;;1.42;85.52;98842.00;5113838;28;20039;-72
2021/11/26 07:15:58;;;;;;;15.80;10.33;;;;;;;1.43;85.70;98829.72;5113448;28;20035;-73
2021/11/26 07:18:27;;;;;;;13.60;11.10;;;;;;;1.42;85.91;98828.88;5113142;28;20036;-66
2021/11/26 07:20:53;;;;;;;16.17;11.60;;;;;;;1.40;85.65;98835.25;5111750;28;20264;-70
2021/11/26 07:23:18;;;;;;;13.23;9.90;;;;;;;1.39;86.13;98826.56;5112181;28;20031;-67
2021/11/26 07:25:44;;;;;;;12.47;10.33;;;;;;;1.43;85.97;98834.94;5093442;28;20039;-70
2021/11/26 07:28:10;;;;;;;13.20;9.83;;;;;;;1.37;85.37;98841.63;5115094;28;20040;-67
2021/11/26 07:30:45;;;;;;;14.53;10.80;;;;;;;1.20;86.23;98824.94;5114850;28;20047;-70
2021/11/26 07:33:10;;;;;;;14.47;10.63;;;;;;;1.41;86.76;98842.16;5098219;28;20035;-70
2021/11/26 07:35:40;;;;;;;13.70;9.13;;;;;;;1.27;86.17;98813.84;5097043;28;20879;-72
2021/11/26 07:38:15;;;;;;;14.43;10.83;;;;;;;1.40;85.86;98841.31;5115424;28;20482;-72
2021/11/26 07:40:41;;;;;;;13.00;9.07;;;;;;;1.31;85.65;98826.50;5115435;28;20272;-66
2021/11/26 07:43:07;;;;;;;12.40;9.30;;;;;;;1.34;85.66;98862.91;5115020;28;20794;-67
2021/11/26 07:45:33;;;;;;;12.93;9.67;;;;;;;1.35;86.23;98858.50;5115063;28;20310;-68
2021/11/26 07:48:02;;;;;;;14.43;9.93;;;;;;;1.31;85.96;98857.97;5114774;28;20054;-67
2021/11/26 07:50:41;;;;;;;11.53;9.27;;;;;;;1.18;86.56;98842.63;5114557;28;20049;-67
2021/11/26 07:53:06;;;;;;;14.63;10.40;;;;;;;1.36;86.46;98874.09;5114895;28;20281;-70
2021/11/26 07:55:35;;;;;;;14.13;9.93;;;;;;;1.33;86.53;98876.19;5096503;28;20065;-65
2021/11/26 07:58:02;;;;;;;14.07;11.10;;;;;;;1.20;86.43;98856.41;5096398;28;20027;-67
2021/11/26 08:00:27;;;;;;;14.70;9.60;;;;;;;1.30;86.96;98872.06;5096086;28;20055;-69
2021/11/26 08:03:02;;;;;;;14.77;9.87;;;;;;;1.39;86.47;98881.66;5114536;28;20269;-69
2021/11/26 08:05:32;;;;;;;13.67;9.97;;;;;;;1.41;85.98;98884.94;5118946;28;20482;-68
2021/11/26 08:07:59;;;;;;;11.93;9.60;;;;;;;1.36;86.11;98884.56;5119148;28;20261;-69
2021/11/26 08:10:25;;;;;;;13.57;10.23;;;;;;;1.29;86.36;98886.16;5117896;28;20272;-66
2021/11/26 08:12:51;;;;;;;13.30;9.90;;;;;;;1.17;86.36;98861.97;5116707;28;20257;-68
2021/11/26 08:15:19;;;;;;;12.07;9.27;;;;;;;1.24;86.16;98883.16;5115951;28;20833;-69
2021/11/26 08:17:46;;;;;;;13.35;9.15;;;;;;;1.32;86.19;98891.09;5116360;28;20081;-66
2021/11/26 08:20:15;;;;;;;11.73;8.97;;;;;;;1.39;86.24;98901.81;5116458;28;20181;-65
2021/11/26 08:22:40;;;;;;;;;;;;;;;1.46;86.19;98903.72;5116601;28;20258;-69
2021/11/26 08:25:09;;;;;;;10.70;8.37;;;;;;;1.30;85.92;98890.41;5097956;28;19956;-68
2021/11/26 08:27:35;;;;;;;14.05;9.95;;;;;;;1.21;86.27;98888.69;5116502;28;20027;-67
2021/11/26 08:30:01;;;;;;;12.07;8.27;;;;;;;1.34;86.21;98904.88;5115664;28;20035;-69
2021/11/26 08:32:28;;;;;;;9.40;7.63;;;;;;;1.34;86.27;98910.13;5116268;28;20848;-65
2021/11/26 08:34:53;;;;;;;12.43;9.70;;;;;;;1.47;86.29;98909.78;5115596;28;20490;-63
2021/11/26 08:37:19;;;;;;;9.50;7.53;;;;;;;1.49;86.63;98902.56;5080770;28;20322;-71
2021/11/26 08:39:45;;;;;;;10.40;7.77;;;;;;;1.58;85.14;98911.34;5098115;28;20027;-69
2021/11/26 08:42:10;;;;;;;10.33;7.43;;;;;;;1.61;86.05;98916.28;5097990;28;20038;-69
2021/11/26 08:44:36;;;;;;;11.37;7.50;;;;;;;1.63;85.56;98914.31;5121244;28;20092;-67
2021/11/26 08:47:02;;;;;;;9.73;7.43;;;;;;;1.71;86.00;98923.09;5120373;28;20115;-69
2021/11/26 08:49:27;;;;;;;10.97;7.47;;;;;;;1.71;85.48;98935.38;5124126;28;20082;-67
2021/11/26 08:51:56;;;;;;;10.13;7.00;;;;;;;1.73;85.34;98938.69;5099853;28;20052;-68
2021/11/26 08:54:24;;;;;;;10.80;7.18;;;;;;;1.65;85.56;98921.06;5096345;28;20564;-69
2021/11/26 08:56:56;;;;;;;8.90;6.53;;;;;;;1.82;84.90;98935.16;5095659;28;20063;-65
2021/11/26 08:59:24;;;;;;;9.17;6.67;;;;;;;1.81;85.06;98951.91;5094474;28;20032;-70
2021/11/26 09:01:51;;;;;;;8.45;6.75;;;;;;;1.77;84.58;98958.44;5094663;28;20874;-67
2021/11/26 09:04:19;;;;;;;8.23;6.67;;;;;;;1.69;84.52;98953.91;5095224;28;20097;-68
2021/11/26 09:06:45;;;;;;;9.38;6.18;;;;;;;1.67;84.56;98962.91;5093634;28;20614;-67
2021/11/26 09:09:11;;;;;;;8.60;6.30;;;;;;;1.71;85.39;98956.38;5094446;28;20046;-68
2021/11/26 09:11:36;;;;;;;9.87;6.60;;;;;;;1.73;84.90;98972.78;5076278;28;20084;-68
2021/11/26 09:14:05;;;;;;;8.30;6.90;;;;;;;1.68;85.09;98960.13;5094364;28;20060;-66
2021/11/26 09:16:31;;;;;;;7.05;6.03;;;;;;;1.77;84.30;98964.50;5094550;28;20085;-66
2021/11/26 09:18:56;;;;;;;9.83;7.43;;;;;;;1.77;84.41;98967.13;5094629;28;20078;-71
2021/11/26 09:21:47;;;;;;;8.33;6.43;;;;;;;1.80;84.51;98973.88;5094865;28;20297;-68
2021/11/26 09:24:13;;;;;;;10.77;6.47;;;;;;;1.86;84.46;98968.00;5094590;28;20777;-66
2021/11/26 09:26:39;;;;;;;10.97;6.57;;;;;;;1.81;84.13;98957.16;5094400;28;20478;-64
2021/11/26 09:29:05;;;;;;;7.90;6.13;;;;;;;1.80;84.40;98961.56;5094180;28;20032;-64
2021/11/26 09:31:30;;;;;;;8.60;5.87;;;;;;;1.83;83.57;98969.13;5094112;28;20088;-65
2021/11/26 09:33:56;;;;;;;7.67;6.73;;;;;;;1.51;84.65;98940.81;5094158;28;20385;-65
2021/11/26 09:36:23;;;;;;;8.83;6.40;;;;;;;1.69;84.30;98967.03;5094122;28;20444;-64
2021/11/26 09:38:49;;;;;;;7.90;6.87;;;;;;;1.65;84.26;98964.84;5094082;28;20657;-61
2021/11/26 09:41:16;;;;;;;7.83;5.90;;;;;;;1.66;84.34;98966.50;5094415;28;20637;-65
2021/11/26 09:43:41;;;;;;;7.93;6.63;;;;;;;1.69;85.81;98968.81;5093957;28;20270;-63
2021/11/26 09:46:07;;;;;;;10.73;7.07;;;;;;;1.71;85.22;98970.31;5093778;28;20335;-63
2021/11/26 09:48:37;;;;;;;11.90;6.60;;;;;;;1.76;85.50;98962.03;5093900;28;20344;-63
2021/11/26 09:51:05;;;;;;;7.27;6.30;;;;;;;1.92;85.05;98975.28;5092427;28;20116;-65
2021/11/26 09:53:33;;;;;;;6.87;6.10;;;;;;;1.73;84.90;98933.44;5091425;28;20640;-66
2021/11/26 09:56:05;;;;;;;10.33;6.63;;;;;;;1.90;84.59;98971.97;5093039;28;20780;-66
2021/11/26 09:58:33;;;;;;;7.87;5.97;;;;;;;1.84;84.60;98976.03;5093722;28;20264;-65
2021/11/26 10:01:02;;;;;;;8.63;6.27;;;;;;;1.89;84.76;98980.84;5093600;28;20753;-63
2021/11/26 10:03:41;;;;;;;8.70;5.17;;;;;;;1.89;84.11;98983.47;5093624;28;20274;-63
2021/11/26 10:06:36;;;;;;;7.77;5.30;;;;;;;1.92;84.54;98991.03;5092482;28;20304;-65
2021/11/26 10:09:10;;;;;;;7.60;5.30;;;;;;;1.89;84.80;98970.34;5093583;28;20270;-64
2021/11/26 10:11:43;;;;;;;7.77;5.90;;;;;;;2.00;85.33;98987.63;5092292;28;20271;-63
2021/11/26 10:14:19;;;;;;;6.90;5.57;;;;;;;2.03;84.36;98985.56;5091736;28;20308;-64
2021/11/26 10:16:48;;;;;;;10.57;5.70;;;;;;;2.00;84.99;98974.50;5093847;28;20270;-67
2021/11/26 10:19:15;;;;;;;6.90;5.57;;;;;;;2.18;85.37;98989.28;5093427;28;20266;-65
2021/11/26 10:21:42;;;;;;;6.40;4.80;;;;;;;2.14;84.38;98993.19;5092083;28;20270;-65
2021/11/26 10:24:17;;;;;;;7.93;6.17;;;;;;;1.97;84.29;98948.56;5092264;28;20262;-61
2021/11/26 10:26:55;;;;;;;8.00;5.83;;;;;;;2.17;84.55;98992.06;5092341;28;20934;-62
2021/11/26 10:29:32;;;;;;;6.30;5.10;;;;;;;2.15;84.64;98989.59;5093251;28;20282;-69
2021/11/26 10:32:12;;;;;;;6.77;5.37;;;;;;;2.24;84.52;99003.59;5092764;28;20764;-62
2021/11/26 10:34:41;;;;;;;6.53;5.83;;;;;;;2.15;84.87;98989.59;5093202;28;20442;-62
2021/11/26 10:37:23;;;;;;;8.65;6.00;;;;;;;2.18;84.86;98984.03;5093906;28;20795;-68
2021/11/26 10:39:49;;;;;;;7.00;6.23;;;;;;;2.34;84.65;99008.78;5093241;28;20044;-64
2021/11/26 10:42:29;;;;;;;7.07;5.97;;;;;;;2.30;84.92;98994.28;5091489;28;20416;-65
2021/11/26 10:45:04;;;;;;;5.93;4.93;;;;;;;2.34;84.75;99012.25;5092937;28;20090;-68
2021/11/26 10:47:49;;;;;;;7.83;6.07;;;;;;;2.26;84.70;99011.31;5092702;28;20749;-63
2021/11/26 10:50:35;;;;;;;6.97;5.43;;;;;;;2.06;84.91;98990.50;5095475;28;20301;-67
2021/11/26 11:00:47;;;;;;;9.53;5.03;;;;;;;2.44;83.49;99054.16;5112721;28;20270;-69
2021/11/26 11:03:14;;;;;;;5.03;4.30;;;;;;;2.37;83.12;99047.88;5112730;28;20311;-67
2021/11/26 11:05:40;;;;;;;6.53;3.87;;;;;;;2.44;82.32;99077.81;5113196;28;20043;-68
2021/11/26 11:08:21;;;;;;;4.77;4.37;;;;;;;2.32;80.98;99073.78;5094376;28;20265;-64
2021/11/26 11:10:47;;;;;;;3.47;2.90;;;;;;;2.33;80.51;99096.44;5112716;28;20038;-70
2021/11/26 11:13:19;;;;;;;4.60;2.70;;;;;;;2.27;80.85;99111.00;5113031;28;20258;-64
2021/11/26 11:15:48;;;;;;;4.47;2.77;;;;;;;2.29;80.17;99102.97;5112389;28;20392;-67
2021/11/26 11:18:15;;;;;;;8.77;4.07;;;;;;;2.27;79.67;99107.53;5113646;28;20269;-64
2021/11/26 11:20:42;;;;;;;3.87;2.47;;;;;;;2.22;78.95;99105.38;5111954;28;20295;-63
2021/11/26 11:23:09;;;;;;;4.13;2.60;;;;;;;2.15;79.66;99094.63;5111161;28;20274;-64
2021/11/26 11:25:35;;;;;;;3.00;2.80;;;;;;;2.20;78.59;99101.25;5111554;28;20039;-64
2021/11/26 11:28:08;;;;;;;6.03;2.50;;;;;;;2.27;78.88;99123.28;5111189;28;20265;-64
2021/11/26 11:30:35;;;;;;;3.00;2.70;;;;;;;2.08;79.28;99111.97;5112106;28;20268;-64
2021/11/26 11:33:01;;;;;;;1.90;1.70;;;;;;;2.00;80.11;99137.28;5112004;28;20772;-68
2021/11/26 11:35:29;;;;;;;2.50;2.20;;;;;;;1.82;79.87;99134.66;5111668;28;20405;-62
2021/11/26 11:37:57;;;;;;;2.97;2.38;;;;;;;1.78;79.54;99146.44;5093446;28;20636;-63
2021/11/26 11:40:38;;;;;;;2.17;1.97;;;;;;;1.80;78.86;99137.44;5112150;28;20059;-63
2021/11/26 11:43:26;;;;;;;2.90;2.30;;;;;;;1.88;80.12;99157.69;5111888;28;20618;-62
2021/11/26 11:46:18;;;;;;;2.75;2.13;;;;;;;1.86;80.57;99170.97;5111735;28;20341;-65
2021/11/26 11:48:48;;;;;;;8.67;3.47;;;;;;;1.86;79.92;99173.59;5089982;28;20410;-63
2021/11/26 11:51:46;;;;;;;10.60;2.73;;;;;;;1.95;80.07;99185.00;5113509;28;20317;-62
2021/11/26 11:54:15;;;;;;;2.80;2.27;;;;;;;2.01;79.74;99194.91;5114514;28;20773;-68
2021/11/26 11:56:49;;;;;;;9.37;2.07;;;;;;;2.05;79.65;99206.81;5118196;28;20300;-65
2021/11/26 11:59:30;;;;;;;3.73;2.67;;;;;;;2.09;79.61;99216.03;5098414;28;20265;-64
2021/11/26 12:02:08;;;;;;;4.57;1.73;;;;;;;2.12;79.46;99215.75;5097523;28;20638;-65
2021/11/26 12:04:42;;;;;;;6.70;2.73;;;;;;;2.00;79.86;99201.13;5096862;28;20273;-68